createdAt,value
2018-01-10T00:01:02.273Z,999.96
2018-01-10T00:02:12.338Z,999.97
2018-01-10T00:03:22.400Z,999.99
2018-01-10T00:04:32.517Z,999.98
2018-01-10T00:05:42.578Z,999.99
2018-01-10T00:06:52.377Z,1000.02
2018-01-10T00:08:02.427Z,1000.01
2018-01-10T00:09:12.205Z,1000.02
2018-01-10T00:10:22.260Z,1000.02
2018-01-10T00:11:32.054Z,1000
2018-01-10T00:12:42.119Z,999.99
2018-01-10T00:13:52.194Z,999.96
2018-01-10T00:15:02.013Z,1000
2018-01-10T00:16:12.072Z,1000.08
2018-01-10T00:17:21.869Z,1000.05
2018-01-10T00:18:31.930Z,1000.12
2018-01-10T00:19:41.719Z,1000.08
2018-01-10T00:20:51.554Z,1000.04
2018-01-10T00:22:01.653Z,1000.03
2018-01-10T00:23:11.435Z,999.97
2018-01-10T00:24:21.478Z,999.82
2018-01-10T00:25:31.531Z,999.78
2018-01-10T00:26:41.579Z,999.72
2018-01-10T00:27:51.612Z,999.68
2018-01-10T00:29:01.407Z,999.68
2018-01-10T00:30:11.205Z,999.65
2018-01-10T00:31:21.047Z,999.66
2018-01-10T00:32:31.114Z,999.59
2018-01-10T00:33:41.226Z,999.61
2018-01-10T00:34:51.288Z,999.57
2018-01-10T00:36:01.327Z,999.59
2018-01-10T00:37:11.130Z,999.57
2018-01-10T00:38:21.202Z,999.57
2018-01-10T00:39:31.271Z,999.6
2018-01-10T00:40:41.075Z,999.55
2018-01-10T00:41:51.128Z,999.62
2018-01-10T00:43:01.181Z,999.57
2018-01-10T00:44:11.225Z,999.53
2018-01-10T00:45:21.340Z,999.49
2018-01-10T00:46:31.417Z,999.53
2018-01-10T00:47:41.214Z,999.52
2018-01-10T00:48:51.259Z,999.48
2018-01-10T00:50:01.324Z,999.39
2018-01-10T00:51:11.432Z,999.38
2018-01-10T00:52:21.498Z,999.36
2018-01-10T00:53:32.595Z,999.25
2018-01-10T00:54:42.625Z,999.28
2018-01-10T00:55:52.419Z,999.28
2018-01-10T00:57:02.465Z,999.27
2018-01-10T00:58:12.256Z,999.21
2018-01-10T00:59:22.304Z,999.23
2018-01-10T01:00:32.339Z,999.23
2018-01-10T01:01:42.402Z,999.19
2018-01-10T01:02:52.457Z,999.33
2018-01-10T01:04:02.532Z,999.28
2018-01-10T01:05:12.597Z,999.3
2018-01-10T01:06:22.395Z,999.32
2018-01-10T01:07:31.917Z,999.37
2018-01-10T01:08:41.815Z,999.34
2018-01-10T01:09:51.861Z,999.38
2018-01-10T01:11:01.917Z,999.38
2018-01-10T01:12:11.709Z,999.45
2018-01-10T01:13:21.754Z,999.45
2018-01-10T01:14:31.803Z,999.52
2018-01-10T01:15:41.849Z,999.45
2018-01-10T01:16:51.651Z,999.46
2018-01-10T01:18:01.710Z,999.47
2018-01-10T01:19:11.754Z,999.47
2018-01-10T01:20:21.507Z,999.46
2018-01-10T01:21:31.558Z,999.44
2018-01-10T01:22:41.586Z,999.45
2018-01-10T01:23:51.371Z,999.41
2018-01-10T01:25:01.792Z,999.43
2018-01-10T01:26:11.566Z,999.33
2018-01-10T01:27:21.616Z,999.44
2018-01-10T01:28:31.671Z,999.39
2018-01-10T01:29:41.718Z,999.43
2018-01-10T01:30:51.777Z,999.57
2018-01-10T01:32:01.838Z,999.61
2018-01-10T01:33:11.893Z,999.6
2018-01-10T01:34:21.972Z,999.67
2018-01-10T01:35:32.022Z,999.69
2018-01-10T01:36:41.827Z,999.57
2018-01-10T01:37:51.928Z,999.52
2018-01-10T01:39:01.450Z,999.5
2018-01-10T01:40:11.500Z,999.53
2018-01-10T01:41:21.556Z,999.56
2018-01-10T01:42:31.612Z,999.56
2018-01-10T01:43:41.452Z,999.56
2018-01-10T01:44:51.234Z,999.57
2018-01-10T01:46:01.271Z,999.57
2018-01-10T01:47:11.326Z,999.58
2018-01-10T01:48:20.864Z,999.61
2018-01-10T01:49:30.900Z,999.56
2018-01-10T01:50:40.970Z,999.64
2018-01-10T01:51:50.747Z,999.62
2018-01-10T01:53:00.811Z,999.58
2018-01-10T01:54:10.906Z,999.57
2018-01-10T01:55:20.952Z,999.57
2018-01-10T01:56:31.016Z,999.56
2018-01-10T01:57:40.797Z,999.57
2018-01-10T01:58:50.598Z,999.58
2018-01-10T02:00:00.398Z,999.56
2018-01-10T02:01:10.239Z,999.58
2018-01-10T02:02:20.301Z,999.58
2018-01-10T02:03:30.341Z,999.56
2018-01-10T02:04:40.384Z,999.56
2018-01-10T02:05:50.172Z,999.59
2018-01-10T02:07:00.229Z,999.54
2018-01-10T02:08:10.288Z,999.56
2018-01-10T02:09:20.336Z,999.57
2018-01-10T02:10:30.399Z,999.54
2018-01-10T02:11:40.435Z,999.55
2018-01-10T02:12:50.488Z,999.57
2018-01-10T02:14:00.284Z,999.53
2018-01-10T02:15:10.334Z,999.52
2018-01-10T02:16:20.388Z,999.52
2018-01-10T02:17:30.430Z,999.47
2018-01-10T02:18:40.481Z,999.49
2018-01-10T02:19:50.529Z,999.41
2018-01-10T02:21:00.308Z,999.41
2018-01-10T02:22:10.361Z,999.39
2018-01-10T02:23:20.153Z,999.38
2018-01-10T02:24:29.941Z,999.39
2018-01-10T02:25:40.043Z,999.32
2018-01-10T02:26:50.090Z,999.36
2018-01-10T02:27:59.890Z,999.33
2018-01-10T02:29:09.942Z,999.31
2018-01-10T02:30:19.562Z,999.31
2018-01-10T02:31:29.368Z,999.3
2018-01-10T02:32:39.182Z,999.32
2018-01-10T02:33:49.238Z,999.36
2018-01-10T02:34:59.298Z,999.37
2018-01-10T02:36:09.145Z,999.35
2018-01-10T02:37:19.189Z,999.37
2018-01-10T02:38:29.302Z,999.3
2018-01-10T02:39:39.340Z,999.31
2018-01-10T02:40:49.397Z,999.32
2018-01-10T02:41:59.484Z,999.27
2018-01-10T02:43:09.550Z,999.3
2018-01-10T02:44:19.347Z,999.26
2018-01-10T02:45:29.194Z,999.25
2018-01-10T02:46:38.738Z,999.21
2018-01-10T02:47:48.782Z,999.23
2018-01-10T02:48:58.580Z,999.22
2018-01-10T02:50:08.623Z,999.17
2018-01-10T02:51:18.673Z,999.14
2018-01-10T02:52:28.719Z,999.13
2018-01-10T02:53:38.838Z,999.12
2018-01-10T02:54:48.874Z,999.11
2018-01-10T02:55:58.930Z,999.07
2018-01-10T02:59:29.232Z,998.98
2018-01-10T03:00:39.327Z,998.99
2018-01-10T03:01:49.383Z,998.98
2018-01-10T03:34:07.845Z,998.64
2018-01-10T03:35:17.889Z,998.6
2018-01-10T03:36:27.928Z,998.56
2018-01-10T03:37:37.968Z,998.54
2018-01-10T03:38:48.029Z,998.54
2018-01-10T03:39:58.066Z,998.5
2018-01-10T03:41:08.117Z,998.52
2018-01-10T03:42:18.158Z,998.51
2018-01-10T03:43:27.948Z,998.49
2018-01-10T03:44:38.021Z,998.43
2018-01-10T03:45:47.816Z,998.43
2018-01-10T03:46:57.860Z,998.39
2018-01-10T03:48:07.649Z,998.37
2018-01-10T03:49:17.448Z,998.41
2018-01-10T03:50:27.504Z,998.4
2018-01-10T03:51:37.559Z,998.35
2018-01-10T03:52:47.355Z,998.42
2018-01-10T03:53:57.151Z,998.38
2018-01-10T03:55:07.203Z,998.41
2018-01-10T03:56:17.253Z,998.46
2018-01-10T03:57:27.447Z,998.44
2018-01-10T03:58:37.499Z,998.41
2018-01-10T03:59:47.283Z,998.4
2018-01-10T04:00:57.322Z,998.4
2018-01-10T04:02:07.376Z,998.43
2018-01-10T04:03:17.475Z,998.42
2018-01-10T04:04:27.530Z,998.4
2018-01-10T04:05:37.602Z,998.41
2018-01-10T04:06:47.671Z,998.42
2018-01-10T04:07:57.198Z,998.42
2018-01-10T04:09:07.037Z,998.38
2018-01-10T04:10:17.080Z,998.35
2018-01-10T04:11:27.211Z,998.36
2018-01-10T04:12:37.271Z,998.31
2018-01-10T04:13:47.386Z,998.25
2018-01-10T04:14:57.509Z,998.23
2018-01-10T04:16:07.559Z,998.23
2018-01-10T04:17:17.617Z,998.24
2018-01-10T04:21:42.491Z,998.16
2018-01-10T04:22:52.295Z,998.16
2018-01-10T04:24:02.352Z,998.16
2018-01-10T04:25:12.144Z,998.17
2018-01-10T04:26:21.941Z,998.17
2018-01-10T04:27:32.083Z,998.16
2018-01-10T04:28:42.144Z,998.15
2018-01-10T04:29:51.937Z,998.13
2018-01-10T04:31:01.734Z,998.1
2018-01-10T04:32:11.525Z,998.08
2018-01-10T04:33:21.312Z,998.05
2018-01-10T04:34:31.094Z,998.1
2018-01-10T04:35:41.154Z,998.04
2018-01-10T04:36:51.205Z,998.04
2018-01-10T04:38:00.998Z,998.02
2018-01-10T04:39:11.032Z,998.02
2018-01-10T04:40:21.076Z,998
2018-01-10T04:41:31.146Z,998.06
2018-01-10T04:42:41.184Z,998.03
2018-01-10T04:43:50.983Z,998.04
2018-01-10T04:45:01.114Z,998.03
2018-01-10T04:46:10.904Z,998.01
2018-01-10T04:47:20.685Z,998.02
2018-01-10T04:48:30.744Z,998.03
2018-01-10T04:49:40.798Z,998.02
2018-01-10T04:50:50.069Z,998.01
2018-01-10T04:52:00.118Z,998.09
2018-01-10T04:53:10.168Z,998.03
2018-01-10T04:54:20.219Z,998.02
2018-01-10T04:55:30.275Z,997.99
2018-01-10T04:56:39.862Z,997.91
2018-01-10T04:57:49.911Z,997.95
2018-01-10T04:58:59.977Z,997.97
2018-01-10T05:00:10.010Z,998.01
2018-01-10T05:01:20.079Z,998.01
2018-01-10T05:02:29.912Z,998
2018-01-10T05:03:39.701Z,997.96
2018-01-10T05:04:49.487Z,997.93
2018-01-10T05:05:59.527Z,997.97
2018-01-10T05:07:09.574Z,997.93
2018-01-10T05:08:19.167Z,997.93
2018-01-10T05:09:28.686Z,997.91
2018-01-10T05:10:38.725Z,997.88
2018-01-10T05:11:48.774Z,997.9
2018-01-10T05:12:58.557Z,997.9
2018-01-10T05:14:08.616Z,997.92
2018-01-10T05:15:18.657Z,997.89
2018-01-10T05:16:28.699Z,997.94
2018-01-10T05:17:38.732Z,997.91
2018-01-10T05:18:48.260Z,997.92
2018-01-10T05:19:58.115Z,997.91
2018-01-10T05:21:07.967Z,997.94
2018-01-10T05:22:18.001Z,997.92
2018-01-10T05:23:28.075Z,997.9
2018-01-10T05:24:38.119Z,997.93
2018-01-10T05:25:47.970Z,997.87
2018-01-10T05:26:58.059Z,997.9
2018-01-10T05:28:08.110Z,997.95
2018-01-10T05:29:17.912Z,997.93
2018-01-10T05:30:27.463Z,997.91
2018-01-10T05:31:37.300Z,997.91
2018-01-10T05:32:47.788Z,997.92
2018-01-10T05:33:57.851Z,997.92
2018-01-10T05:35:07.913Z,997.96
2018-01-10T05:36:17.951Z,997.87
2018-01-10T05:37:28.014Z,997.91
2018-01-10T05:38:37.804Z,997.87
2018-01-10T05:39:47.605Z,997.86
2018-01-10T05:40:57.656Z,997.83
2018-01-10T05:42:07.448Z,997.83
2018-01-10T05:43:17.547Z,997.82
2018-01-10T05:44:27.083Z,997.78
2018-01-10T05:45:36.878Z,997.78
2018-01-10T05:46:46.665Z,997.8
2018-01-10T05:47:56.453Z,997.79
2018-01-10T05:49:06.241Z,997.76
2018-01-10T05:50:16.282Z,997.79
2018-01-10T05:51:26.068Z,997.8
2018-01-10T05:52:36.125Z,997.74
2018-01-10T05:53:46.187Z,997.68
2018-01-10T05:54:55.987Z,997.66
2018-01-10T05:56:05.843Z,997.69
2018-01-10T05:57:15.892Z,997.65
2018-01-10T05:58:25.688Z,997.65
2018-01-10T05:59:35.493Z,997.63
2018-01-10T06:00:45.600Z,997.65
2018-01-10T06:01:55.753Z,997.63
2018-01-10T06:03:05.813Z,997.67
2018-01-10T06:04:15.869Z,997.67
2018-01-10T06:05:25.944Z,997.7
2018-01-10T06:06:35.726Z,997.68
2018-01-10T06:07:45.779Z,997.71
2018-01-10T06:08:55.826Z,997.73
2018-01-10T06:10:05.888Z,997.69
2018-01-10T06:11:15.931Z,997.72
2018-01-10T06:12:25.982Z,997.72
2018-01-10T06:13:36.021Z,997.75
2018-01-10T06:14:46.123Z,997.72
2018-01-10T06:15:56.169Z,997.71
2018-01-10T06:17:05.960Z,997.74
2018-01-10T06:18:16.154Z,997.74
2018-01-10T06:19:26.232Z,997.7
2018-01-10T06:20:36.279Z,997.68
2018-01-10T06:21:46.349Z,997.73
2018-01-10T06:22:56.406Z,997.79
2018-01-10T06:24:06.252Z,997.78
2018-01-10T06:25:16.314Z,997.69
2018-01-10T06:26:26.119Z,997.73
2018-01-10T06:27:36.160Z,997.73
2018-01-10T06:28:46.218Z,997.72
2018-01-10T06:29:56.322Z,997.78
2018-01-10T06:31:06.120Z,997.74
2018-01-10T06:32:16.175Z,997.73
2018-01-10T06:33:26.229Z,997.72
2018-01-10T06:34:36.280Z,997.66
2018-01-10T06:35:46.395Z,997.67
2018-01-10T06:36:55.933Z,997.65
2018-01-10T06:38:06.048Z,997.67
2018-01-10T06:39:16.099Z,997.66
2018-01-10T06:40:26.148Z,997.67
2018-01-10T06:41:36.219Z,997.62
2018-01-10T06:42:46.522Z,997.61
2018-01-10T06:43:56.360Z,997.59
2018-01-10T06:45:06.170Z,997.6
2018-01-10T06:46:15.975Z,997.61
2018-01-10T06:47:26.075Z,997.62
2018-01-10T06:48:35.894Z,997.56
2018-01-10T06:49:45.968Z,997.56
2018-01-10T06:50:55.838Z,997.52
2018-01-10T06:52:05.905Z,997.51
2018-01-10T06:53:15.497Z,997.52
2018-01-10T06:54:25.323Z,997.53
2018-01-10T06:55:35.165Z,997.52
2018-01-10T06:56:45.226Z,997.55
2018-01-10T06:57:55.024Z,997.54
2018-01-10T06:59:05.233Z,997.58
2018-01-10T07:00:15.346Z,997.6
2018-01-10T07:01:25.130Z,997.57
2018-01-10T07:02:35.003Z,997.57
2018-01-10T07:03:44.565Z,997.58
2018-01-10T07:04:54.634Z,997.57
2018-01-10T07:06:04.744Z,997.54
2018-01-10T07:07:14.552Z,997.46
2018-01-10T07:08:24.670Z,997.51
2018-01-10T07:09:34.947Z,997.53
2018-01-10T07:10:44.811Z,997.51
2018-01-10T07:11:54.876Z,997.52
2018-01-10T07:13:04.940Z,997.51
2018-01-10T07:14:15.034Z,997.53
2018-01-10T07:15:24.846Z,997.54
2018-01-10T07:16:34.948Z,997.54
2018-01-10T07:17:45.025Z,997.54
2018-01-10T07:18:55.089Z,997.54
2018-01-10T07:20:05.191Z,997.49
2018-01-10T07:21:15.259Z,997.56
2018-01-10T07:22:25.308Z,997.51
2018-01-10T07:23:35.382Z,997.48
2018-01-10T07:24:45.463Z,997.52
2018-01-10T07:25:55.545Z,997.51
2018-01-10T07:27:05.113Z,997.54
2018-01-10T07:28:14.917Z,997.52
2018-01-10T07:29:24.727Z,997.5
2018-01-10T07:30:34.849Z,997.51
2018-01-10T07:31:45.672Z,997.5
2018-01-10T07:32:56.477Z,997.46
2018-01-10T07:34:06.604Z,997.41
2018-01-10T07:35:16.890Z,997.45
2018-01-10T07:36:26.942Z,997.41
2018-01-10T07:37:37.006Z,997.38
2018-01-10T07:38:47.069Z,997.41
2018-01-10T07:39:57.179Z,997.43
2018-01-10T07:41:07.245Z,997.45
2018-01-10T07:42:17.309Z,997.43
2018-01-10T07:43:27.429Z,997.45
2018-01-10T07:44:37.496Z,997.44
2018-01-10T07:45:47.553Z,997.47
2018-01-10T07:46:57.351Z,997.51
2018-01-10T07:48:07.400Z,997.45
2018-01-10T07:49:17.540Z,997.46
2018-01-10T07:50:27.613Z,997.45
2018-01-10T07:51:37.673Z,997.44
2018-01-10T07:52:47.974Z,997.51
2018-01-10T07:53:58.029Z,997.46
2018-01-10T07:55:08.098Z,997.48
2018-01-10T07:56:18.168Z,997.49
2018-01-10T07:57:28.019Z,997.53
2018-01-10T07:58:38.068Z,997.45
2018-01-10T07:59:48.146Z,997.47
2018-01-10T08:00:58.024Z,997.48
2018-01-10T08:02:08.103Z,997.47
2018-01-10T08:03:19.061Z,997.51
2018-01-10T08:04:28.867Z,997.48
2018-01-10T08:05:38.937Z,997.46
2018-01-10T08:06:49.035Z,997.46
2018-01-10T08:07:59.105Z,997.49
2018-01-10T08:09:09.182Z,997.44
2018-01-10T08:10:19.326Z,997.5
2018-01-10T08:11:29.140Z,997.5
2018-01-10T08:12:39.225Z,997.46
2018-01-10T08:13:49.321Z,997.45
2018-01-10T08:14:59.179Z,997.44
2018-01-10T08:16:09.312Z,997.42
2018-01-10T08:17:19.384Z,997.41
2018-01-10T08:18:29.189Z,997.39
2018-01-10T08:19:39.284Z,997.41
2018-01-10T08:20:49.089Z,997.4
2018-01-10T08:21:58.878Z,997.42
2018-01-10T08:23:09.018Z,997.42
2018-01-10T08:24:19.084Z,997.42
2018-01-10T08:25:28.898Z,997.35
2018-01-10T08:26:38.969Z,997.34
2018-01-10T08:27:49.044Z,997.42
2018-01-10T08:28:59.089Z,997.34
2018-01-10T08:30:08.897Z,997.38
2018-01-10T08:31:18.972Z,997.39
2018-01-10T08:32:29.054Z,997.39
2018-01-10T08:33:39.107Z,997.44
2018-01-10T08:34:49.257Z,997.37
2018-01-10T08:35:59.315Z,997.44
2018-01-10T08:37:09.386Z,997.44
2018-01-10T08:38:19.191Z,997.44
2018-01-10T08:39:30.216Z,997.44
2018-01-10T08:40:40.317Z,997.44
2018-01-10T08:41:51.588Z,997.49
2018-01-10T08:43:01.660Z,997.45
2018-01-10T08:44:11.708Z,997.45
2018-01-10T08:45:21.516Z,997.42
2018-01-10T08:46:32.546Z,997.41
2018-01-10T08:47:42.360Z,997.39
2018-01-10T08:48:52.465Z,997.39
2018-01-10T08:50:02.265Z,997.41
2018-01-10T08:51:12.324Z,997.39
2018-01-10T08:52:22.399Z,997.4
2018-01-10T08:53:32.477Z,997.4
2018-01-10T08:54:42.024Z,997.39
2018-01-10T08:55:52.091Z,997.42
2018-01-10T08:57:02.148Z,997.43
2018-01-10T08:58:12.229Z,997.42
2018-01-10T08:59:22.022Z,997.43
2018-01-10T09:00:31.848Z,997.44
2018-01-10T09:01:41.649Z,997.4
2018-01-10T09:02:51.714Z,997.41
2018-01-10T09:04:01.819Z,997.45
2018-01-10T09:05:11.884Z,997.44
2018-01-10T09:06:21.966Z,997.44
2018-01-10T09:07:32.046Z,997.48
2018-01-10T09:08:42.115Z,997.44
2018-01-10T09:09:53.031Z,997.42
2018-01-10T09:11:03.208Z,997.45
2018-01-10T09:12:13.294Z,997.47
2018-01-10T09:13:24.215Z,997.45
2018-01-10T09:14:34.273Z,997.48
2018-01-10T09:15:44.080Z,997.46
2018-01-10T09:16:54.147Z,997.48
2018-01-10T09:18:04.223Z,997.44
2018-01-10T09:19:14.282Z,997.44
2018-01-10T09:20:24.369Z,997.41
2018-01-10T09:21:34.488Z,997.44
2018-01-10T09:22:44.354Z,997.44
2018-01-10T09:23:54.502Z,997.45
2018-01-10T09:25:04.612Z,997.42
2018-01-10T09:26:14.748Z,997.41
2018-01-10T09:27:24.857Z,997.36
2018-01-10T09:28:34.982Z,997.4
2018-01-10T09:29:44.858Z,997.38
2018-01-10T09:30:54.801Z,997.34
2018-01-10T09:32:04.961Z,997.29
2018-01-10T09:33:15.254Z,997.32
2018-01-10T09:34:25.510Z,997.26
2018-01-10T09:35:35.843Z,997.25
2018-01-10T09:36:45.947Z,997.26
2018-01-10T09:37:56.121Z,997.23
2018-01-10T09:39:06.277Z,997.22
2018-01-10T09:40:16.142Z,997.26
2018-01-10T09:41:26.003Z,997.2
2018-01-10T09:42:36.150Z,997.19
2018-01-10T09:43:46.293Z,997.14
2018-01-10T09:44:56.193Z,997.17
2018-01-10T09:46:06.067Z,997.18
2018-01-10T09:47:15.956Z,997.14
2018-01-10T09:48:25.766Z,997.11
2018-01-10T09:49:35.862Z,996.99
2018-01-10T09:50:46.024Z,997.03
2018-01-10T09:51:56.238Z,997.03
2018-01-10T09:53:07.200Z,997
2018-01-10T09:54:17.010Z,996.97
2018-01-10T09:55:26.820Z,996.94
2018-01-10T09:56:36.948Z,996.96
2018-01-10T09:57:46.790Z,996.91
2018-01-10T09:58:56.901Z,996.95
2018-01-10T10:00:06.728Z,996.92
2018-01-10T10:01:17.051Z,996.95
2018-01-10T10:02:27.144Z,996.93
2018-01-10T10:03:37.225Z,996.87
2018-01-10T10:04:47.342Z,996.87
2018-01-10T10:05:57.474Z,996.81
2018-01-10T10:07:07.627Z,996.78
2018-01-10T10:08:17.891Z,996.79
2018-01-10T10:10:55.631Z,996.76
2018-01-10T10:12:05.714Z,996.78
2018-01-10T10:13:15.538Z,996.76
2018-01-10T10:14:25.647Z,996.77
2018-01-10T10:15:35.850Z,996.77
2018-01-10T10:16:45.651Z,996.75
2018-01-10T10:17:55.513Z,996.72
2018-01-10T10:19:05.605Z,996.69
2018-01-10T10:20:15.678Z,996.71
2018-01-10T10:21:25.561Z,996.76
2018-01-10T10:22:35.650Z,996.67
2018-01-10T10:23:45.757Z,996.63
2018-01-10T10:24:55.902Z,996.66
2018-01-10T10:26:05.990Z,996.56
2018-01-10T10:27:16.089Z,996.56
2018-01-10T10:28:25.928Z,996.57
2018-01-10T10:29:35.767Z,996.56
2018-01-10T10:30:45.675Z,996.55
2018-01-10T10:32:02.291Z,996.52
2018-01-10T10:33:11.849Z,996.56
2018-01-10T10:34:21.943Z,996.59
2018-01-10T10:35:32.609Z,996.54
2018-01-10T10:36:42.722Z,996.53
2018-01-10T10:37:52.926Z,996.53
2018-01-10T10:39:03.002Z,996.47
2018-01-10T10:40:13.093Z,996.44
2018-01-10T10:41:22.944Z,996.46
2018-01-10T10:42:33.088Z,996.46
2018-01-10T10:43:43.234Z,996.46
2018-01-10T10:44:53.328Z,996.45
2018-01-10T10:46:03.229Z,996.38
2018-01-10T10:47:13.326Z,996.38
2018-01-10T10:48:23.143Z,996.35
2018-01-10T10:49:33.225Z,996.38
2018-01-10T10:50:43.338Z,996.37
2018-01-10T10:51:53.392Z,996.39
2018-01-10T10:53:03.469Z,996.39
2018-01-10T10:54:13.554Z,996.38
2018-01-10T10:55:23.100Z,996.34
2018-01-10T10:56:33.176Z,996.37
2018-01-10T10:57:43.279Z,996.37
2018-01-10T10:58:52.825Z,996.41
2018-01-10T11:00:02.908Z,996.48
2018-01-10T11:01:12.779Z,996.4
2018-01-10T11:02:22.578Z,996.44
2018-01-10T11:03:32.657Z,996.38
2018-01-10T11:04:42.470Z,996.39
2018-01-10T11:05:52.287Z,996.38
2018-01-10T11:07:02.099Z,996.37
2018-01-10T11:08:11.904Z,996.36
2018-01-10T11:09:21.962Z,996.39
2018-01-10T11:10:32.049Z,996.37
2018-01-10T11:11:41.862Z,996.35
2018-01-10T11:12:51.734Z,996.32
2018-01-10T11:14:01.831Z,996.27
2018-01-10T11:15:11.918Z,996.27
2018-01-10T11:16:21.990Z,996.26
2018-01-10T11:17:32.083Z,996.22
2018-01-10T11:18:41.690Z,996.24
2018-01-10T11:19:51.756Z,996.16
2018-01-10T11:21:01.881Z,996.18
2018-01-10T11:22:11.713Z,996.13
2018-01-10T11:23:21.800Z,996.16
2018-01-10T11:24:32.687Z,996.13
2018-01-10T11:25:42.759Z,996.16
2018-01-10T11:26:52.825Z,996.11
2018-01-10T11:28:02.670Z,996.11
2018-01-10T11:29:12.768Z,996.13
2018-01-10T11:30:22.850Z,996.11
2018-01-10T11:31:32.903Z,996.1
2018-01-10T11:32:42.736Z,996.08
2018-01-10T11:33:52.818Z,996.05
2018-01-10T11:35:02.909Z,996.03
2018-01-10T11:36:13.077Z,996.01
2018-01-10T11:37:23.138Z,995.99
2018-01-10T11:38:33.205Z,995.95
2018-01-10T11:39:43.014Z,995.94
2018-01-10T11:40:53.127Z,995.93
2018-01-10T11:42:02.980Z,995.97
2018-01-10T11:43:12.769Z,996
2018-01-10T11:44:22.829Z,996
2018-01-10T11:45:32.947Z,996.01
2018-01-10T11:46:42.824Z,996.05
2018-01-10T11:47:52.947Z,996.05
2018-01-10T11:49:03.018Z,996.03
2018-01-10T11:50:13.077Z,996.08
2018-01-10T11:51:23.147Z,996.07
2018-01-10T11:52:33.224Z,996.09
2018-01-10T11:53:43.307Z,996.09
2018-01-10T11:54:54.025Z,996.07
2018-01-10T11:56:04.100Z,996.08
2018-01-10T11:57:13.953Z,996.11
2018-01-10T11:58:24.465Z,996.1
2018-01-10T11:59:34.561Z,996.09
2018-01-10T12:00:44.628Z,996.06
2018-01-10T12:01:54.702Z,996.08
2018-01-10T12:03:05.027Z,996.07
2018-01-10T12:04:15.076Z,996.05
2018-01-10T12:05:24.890Z,996.01
2018-01-10T12:06:34.975Z,996
2018-01-10T12:07:45.032Z,995.94
2018-01-10T12:08:55.244Z,995.96
2018-01-10T12:10:05.326Z,995.94
2018-01-10T12:11:15.417Z,995.94
2018-01-10T12:12:25.494Z,995.89
2018-01-10T12:13:35.583Z,995.9
2018-01-10T12:14:45.418Z,995.89
2018-01-10T12:15:55.483Z,995.86
2018-01-10T12:17:05.564Z,995.9
2018-01-10T12:18:15.646Z,995.87
2018-01-10T12:19:25.735Z,995.8
2018-01-10T12:20:35.941Z,995.79
2018-01-10T12:21:46.967Z,995.82
2018-01-10T12:22:56.807Z,995.81
2018-01-10T12:24:06.616Z,995.79
2018-01-10T12:25:16.921Z,995.8
2018-01-10T12:26:27.052Z,995.73
2018-01-10T12:27:36.557Z,995.66
2018-01-10T12:28:46.621Z,995.66
2018-01-10T12:29:56.681Z,995.61
2018-01-10T12:31:06.835Z,995.58
2018-01-10T12:32:16.948Z,995.59
2018-01-10T12:33:26.752Z,995.57
2018-01-10T12:34:36.297Z,995.58
2018-01-10T12:35:46.425Z,995.53
2018-01-10T12:36:56.537Z,995.51
2018-01-10T12:38:06.610Z,995.52
2018-01-10T12:39:16.672Z,995.51
2018-01-10T12:40:26.760Z,995.54
2018-01-10T12:41:36.859Z,995.54
2018-01-10T12:42:46.913Z,995.48
2018-01-10T12:43:56.988Z,995.49
2018-01-10T12:45:07.067Z,995.48
2018-01-10T12:46:17.120Z,995.49
2018-01-10T12:47:27.243Z,995.54
2018-01-10T12:48:37.320Z,995.51
2018-01-10T12:49:47.400Z,995.52
2018-01-10T12:50:57.644Z,995.51
2018-01-10T12:52:08.025Z,995.45
2018-01-10T12:53:17.809Z,995.49
2018-01-10T12:54:27.705Z,995.45
2018-01-10T12:55:37.806Z,995.44
2018-01-10T12:56:47.617Z,995.4
2018-01-10T12:57:57.684Z,995.43
2018-01-10T12:59:07.516Z,995.38
2018-01-10T13:00:17.047Z,995.37
2018-01-10T13:01:26.966Z,995.38
2018-01-10T13:02:37.033Z,995.34
2018-01-10T13:03:46.573Z,995.35
2018-01-10T13:04:56.689Z,995.35
2018-01-10T13:06:06.822Z,995.37
2018-01-10T13:07:16.991Z,995.32
2018-01-10T13:08:27.160Z,995.33
2018-01-10T13:09:37.279Z,995.32
2018-01-10T13:10:47.374Z,995.32
2018-01-10T13:11:57.990Z,995.32
2018-01-10T13:13:08.188Z,995.33
2018-01-10T13:14:18.016Z,995.35
2018-01-10T13:15:28.095Z,995.36
2018-01-10T13:16:37.924Z,995.35
2018-01-10T13:17:48.328Z,995.38
2018-01-10T13:18:57.960Z,995.34
2018-01-10T13:20:07.776Z,995.3
2018-01-10T13:21:17.852Z,995.32
2018-01-10T13:22:27.958Z,995.34
2018-01-10T13:23:38.024Z,995.33
2018-01-10T13:24:47.584Z,995.33
2018-01-10T13:25:57.657Z,995.32
2018-01-10T13:27:07.760Z,995.29
2018-01-10T13:28:17.297Z,995.3
2018-01-10T13:29:27.382Z,995.31
2018-01-10T13:30:37.454Z,995.31
2018-01-10T13:31:47.564Z,995.27
2018-01-10T13:32:57.679Z,995.25
2018-01-10T13:34:07.758Z,995.23
2018-01-10T13:35:17.575Z,995.25
2018-01-10T13:36:27.678Z,995.23
2018-01-10T13:37:37.467Z,995.23
2018-01-10T13:38:47.273Z,995.21
2018-01-10T13:39:57.357Z,995.2
2018-01-10T13:41:07.481Z,995.19
2018-01-10T13:42:17.537Z,995.16
2018-01-10T13:43:27.358Z,995.19
2018-01-10T13:44:38.124Z,995.15
2018-01-10T13:45:47.906Z,995.2
2018-01-10T13:46:58.071Z,995.17
2018-01-10T13:48:08.122Z,995.13
2018-01-10T13:49:17.932Z,995.13
2018-01-10T13:50:27.735Z,995.11
2018-01-10T13:51:37.824Z,995.06
2018-01-10T13:52:47.899Z,995.11
2018-01-10T13:53:58.019Z,995.12
2018-01-10T13:55:08.100Z,995.14
2018-01-10T13:56:18.487Z,995.15
2018-01-10T13:57:28.573Z,995.13
2018-01-10T13:58:38.421Z,995.14
2018-01-10T13:59:48.490Z,995.11
2018-01-10T14:00:58.705Z,995.08
2018-01-10T14:02:08.757Z,995.09
2018-01-10T14:03:18.839Z,995.08
2018-01-10T14:04:28.431Z,995.08
2018-01-10T14:05:38.481Z,995.08
2018-01-10T14:06:48.528Z,995.05
2018-01-10T14:07:58.575Z,995.05
2018-01-10T14:09:08.362Z,995.05
2018-01-10T14:10:18.153Z,995.05
2018-01-10T14:11:28.215Z,995.04
2018-01-10T14:12:38.282Z,995.01
2018-01-10T14:13:48.384Z,995
2018-01-10T14:14:58.193Z,995.01
2018-01-10T14:16:08.293Z,995.03
2018-01-10T14:17:17.838Z,995.01
2018-01-10T14:18:27.880Z,995.04
2018-01-10T14:19:37.668Z,995
2018-01-10T14:20:47.500Z,994.98
2018-01-10T14:21:57.561Z,995
2018-01-10T14:23:07.112Z,995.02
2018-01-10T14:24:17.183Z,994.99
2018-01-10T14:25:27.228Z,995
2018-01-10T14:26:37.298Z,995.04
2018-01-10T14:27:47.375Z,995.05
2018-01-10T14:28:57.438Z,995.02
2018-01-10T14:30:07.528Z,995.01
2018-01-10T14:31:17.352Z,995
2018-01-10T14:32:27.478Z,995.04
2018-01-10T14:33:37.608Z,995.07
2018-01-10T14:34:47.679Z,995.12
2018-01-10T14:35:57.761Z,995.14
2018-01-10T14:37:07.826Z,995.09
2018-01-10T14:38:17.896Z,995.06
2018-01-10T14:39:28.002Z,995.06
2018-01-10T14:40:38.075Z,995.01
2018-01-10T14:41:47.867Z,995.03
2018-01-10T14:42:57.680Z,995.03
2018-01-10T14:44:07.790Z,995
2018-01-10T14:45:17.600Z,995.04
2018-01-10T14:46:27.395Z,995.05
2018-01-10T14:47:37.182Z,995.06
2018-01-10T14:48:47.013Z,995.09
2018-01-10T14:49:56.804Z,995.08
2018-01-10T14:51:06.320Z,995.04
2018-01-10T14:52:16.376Z,995.07
2018-01-10T14:53:26.443Z,995.09
2018-01-10T14:54:36.563Z,995.06
2018-01-10T14:55:46.358Z,995.01
2018-01-10T14:56:56.420Z,995.06
2018-01-10T14:58:06.461Z,995.02
2018-01-10T14:59:16.274Z,994.97
2018-01-10T15:00:26.385Z,994.96
2018-01-10T15:01:36.464Z,994.99
2018-01-10T15:02:46.527Z,994.96
2018-01-10T15:03:57.086Z,994.97
2018-01-10T15:05:06.883Z,994.96
2018-01-10T15:06:16.677Z,994.94
2018-01-10T15:07:26.732Z,994.95
2018-01-10T15:08:36.284Z,994.92
2018-01-10T15:09:46.340Z,994.93
2018-01-10T15:10:56.128Z,994.94
2018-01-10T15:12:06.485Z,994.94
2018-01-10T15:13:16.526Z,994.95
2018-01-10T15:14:26.598Z,994.97